Aérodrome :
LOGIN :

S'inscrire | Disclaimer

   EN    FR    IT 

 










Légende :    VFR   VFR Marginal   IFR   IFR Intensif   IFR Très Intensif
Visi : 
Plafond : 
>= 8 km
>= 3000ft
5 à 8 km
1000 à 3000 ft
1500m à 5 km
500 à 1000 ft
800 à 1500m
200 à 500 ft
< 800m
< 200 ft
Symboles :   Orages  Brouillard  Fortes neiges  Fortes précipitations  Vent > 20 kt
SIGMETs :   Divers  Orages  Givrage  Turbulence  Onde Orograph.  Cendres Volcan.






- Altitude de l'aérodrome : 245 ft


ETHS - Fassberg

DERNIER METAR :
  • 050120Z 05001KT 9999 BKN120 14/13 Q1012 BLU

METARs EXPIRÉS :
  • 050020Z 06002KT 9999 BKN100 14/13 Q1012 BLU
  • 042320Z 02003KT 9999 BKN090 14/14 Q1012 BLU
  • 042220Z 02002KT 8000 -SHRA FEW040 BKN090 15/14 Q1013 RESHRA BLU

TAF TAF ETHS
Valide du 04 à 20h jusqu'au 05 à 05h UTC


041919Z 0420/0505 06005KT 9999 NSW SCT060
PROB30 0420/0422 00010G20KT 5000 -SHRA SCT020 BKN030CB
PROB30 0422/0505 VRB03KT 5000 MIFG SCT060



MET'MAP, la Météo Aéronautique d'un coup d'oeil ! - Copyright ORBIFLY Décembre 2007 - Disclaimer

ORBIFLY MET'MAP TEAM :

Programmation & Développement : Alexandra Zaïnal
Sur une idée originale de : Baudouin d'Aumeries
Assistance à la programmation : Marc-Olivier Méhu
Soutien technique & logistique : Manuel Goepfert

Contact : metmap@orbifly.com




SOURCES & CREDITS :

   NOAA